createdAt,value
2023-01-04T00:01:35.726Z,97411.91
2023-01-04T00:04:03.877Z,97422.28
2023-01-04T00:06:32.276Z,97430.00
2023-01-04T00:09:01.782Z,97431.72
2023-01-04T00:11:30.112Z,97419.81
2023-01-04T00:13:58.992Z,97431.03
2023-01-04T00:16:28.011Z,97430.47
2023-01-04T00:18:56.588Z,97424.91
2023-01-04T00:21:25.846Z,97426.00
2023-01-04T00:23:55.916Z,97447.41
2023-01-04T00:26:26.648Z,97442.78
2023-01-04T00:28:55.331Z,97479.59
2023-01-04T00:31:24.271Z,97466.84
2023-01-04T00:33:52.752Z,97482.19
2023-01-04T00:36:21.016Z,97468.78
2023-01-04T00:39:07.933Z,97477.19
2023-01-04T00:44:27.266Z,97483.09
2023-01-04T00:46:55.379Z,97482.59
2023-01-04T00:49:23.479Z,97510.91
2023-01-04T00:51:51.462Z,97532.56
2023-01-04T00:54:19.610Z,97511.59
2023-01-04T00:56:49.651Z,97577.78
2023-01-04T00:59:18.816Z,97573.03
2023-01-04T01:01:47.284Z,97554.28
2023-01-04T01:04:16.627Z,97578.16
2023-01-04T01:06:44.691Z,97580.72
2023-01-04T01:09:13.125Z,97579.84
2023-01-04T01:11:41.207Z,97601.44
2023-01-04T01:14:14.977Z,97609.50
2023-01-04T01:16:58.943Z,97608.94
2023-01-04T01:19:27.839Z,97633.81
2023-01-04T01:21:57.314Z,97629.53
2023-01-04T01:24:25.444Z,97655.44
2023-01-04T01:26:53.510Z,97646.03
2023-01-04T01:29:23.070Z,97672.53
2023-01-04T01:31:51.090Z,97660.91
2023-01-04T01:34:19.082Z,97659.69
2023-01-04T01:36:47.003Z,97660.75
2023-01-04T01:39:14.961Z,97672.63
2023-01-04T01:41:43.111Z,97688.81
2023-01-04T01:44:25.907Z,97674.53
2023-01-04T01:46:56.086Z,97700.25
2023-01-04T01:49:26.714Z,97712.38
2023-01-04T01:51:56.032Z,97710.75
2023-01-04T01:54:27.262Z,97722.88
2023-01-04T01:56:57.169Z,97735.69
2023-01-04T01:59:25.275Z,97741.47
2023-01-04T02:01:53.375Z,97728.06
2023-01-04T02:04:22.868Z,97748.06
2023-01-04T02:06:52.462Z,97755.81
2023-01-04T02:09:21.069Z,97766.22
2023-01-04T02:11:49.119Z,97768.88
2023-01-04T02:14:31.186Z,97785.09
2023-01-04T02:17:06.813Z,97809.09
2023-01-04T02:19:51.540Z,97819.88
2023-01-04T02:22:34.293Z,97807.16
2023-01-04T02:25:14.738Z,97840.16
2023-01-04T02:27:50.701Z,97823.19
2023-01-04T02:30:39.548Z,97822.03
2023-01-04T02:33:15.445Z,97846.03
2023-01-04T02:35:48.552Z,97839.97
2023-01-04T02:38:20.620Z,97823.28
2023-01-04T02:40:52.475Z,97820.97
2023-01-04T02:43:38.991Z,97856.59
2023-01-04T02:46:09.732Z,97870.47
2023-01-04T02:48:56.927Z,97884.25
2023-01-04T02:51:27.695Z,97878.09
2023-01-04T02:53:55.743Z,97877.41
2023-01-04T02:56:35.977Z,97895.72
2023-01-04T02:59:12.198Z,97904.19
2023-01-04T03:02:01.801Z,97940.47
2023-01-04T03:04:58.113Z,97913.81
2023-01-04T03:07:29.281Z,97926.59
2023-01-04T03:10:02.390Z,97950.78
2023-01-04T03:12:36.115Z,97933.72
2023-01-04T03:15:10.008Z,97960.47
2023-01-04T03:17:42.816Z,97957.47
2023-01-04T03:20:13.604Z,97956.94
2023-01-04T03:23:00.764Z,97968.72
2023-01-04T03:25:49.285Z,97973.81
2023-01-04T03:28:36.475Z,97979.81
2023-01-04T03:31:25.310Z,97973.09
2023-01-04T03:34:11.113Z,97998.56
2023-01-04T03:36:47.766Z,98005.66
2023-01-04T03:39:36.486Z,98007.31
2023-01-04T03:42:27.017Z,98015.53
2023-01-04T03:45:15.262Z,98003.22
2023-01-04T03:48:03.897Z,98030.06
2023-01-04T03:50:35.665Z,98029.72
2023-01-04T03:53:05.444Z,98019.00
2023-01-04T03:55:35.714Z,98048.81
2023-01-04T03:58:03.819Z,98050.69
2023-01-04T04:00:32.188Z,98041.59
2023-01-04T04:03:07.782Z,98065.25
2023-01-04T04:05:54.700Z,98049.81
2023-01-04T04:08:28.360Z,98054.19
2023-01-04T04:10:57.147Z,98064.06
2023-01-04T04:13:25.939Z,98069.47
2023-01-04T04:15:54.536Z,98071.56
2023-01-04T04:18:22.526Z,98104.13
2023-01-04T04:20:58.281Z,98092.97
2023-01-04T04:23:27.645Z,98119.50
2023-01-04T04:25:55.651Z,98096.03
2023-01-04T04:28:23.698Z,98092.50
2023-01-04T04:30:52.027Z,98122.97
2023-01-04T04:33:19.982Z,98131.88
2023-01-04T04:35:51.441Z,98144.44
2023-01-04T04:38:19.746Z,98131.94
2023-01-04T04:41:06.725Z,98148.13
2023-01-04T04:43:34.809Z,98142.38
2023-01-04T04:46:03.324Z,98132.66
2023-01-04T04:48:31.593Z,98164.97
2023-01-04T04:50:59.574Z,98159.00
2023-01-04T04:53:27.678Z,98163.19
2023-01-04T04:55:57.187Z,98190.16
2023-01-04T04:58:25.165Z,98190.84
2023-01-04T05:00:53.273Z,98178.75
2023-01-04T05:03:21.381Z,98197.72
2023-01-04T05:05:49.469Z,98178.91
2023-01-04T05:08:17.437Z,98183.31
2023-01-04T05:10:45.500Z,98178.59
2023-01-04T05:13:13.956Z,98195.22
2023-01-04T05:15:43.781Z,98199.19
2023-01-04T05:18:12.794Z,98210.63
2023-01-04T05:20:40.965Z,98187.19
2023-01-04T05:23:09.634Z,98226.59
2023-01-04T05:25:37.583Z,98234.94
2023-01-04T05:28:05.719Z,98233.94
2023-01-04T05:30:53.671Z,98228.03
2023-01-04T05:33:22.906Z,98255.66
2023-01-04T05:35:51.201Z,98236.25
2023-01-04T05:38:19.729Z,98249.47
2023-01-04T05:40:48.014Z,98231.28
2023-01-04T05:43:16.491Z,98259.03
2023-01-04T05:45:48.356Z,98270.66
2023-01-04T05:48:16.528Z,98279.44
2023-01-04T05:50:46.007Z,98264.28
2023-01-04T05:53:14.544Z,98275.44
2023-01-04T05:55:42.533Z,98298.38
2023-01-04T05:58:10.856Z,98303.84
2023-01-04T06:00:38.789Z,98302.25
2023-01-04T06:03:08.392Z,98304.44
2023-01-04T06:05:36.600Z,98304.44
2023-01-04T06:08:04.657Z,98308.44
2023-01-04T06:10:33.787Z,98306.06
2023-01-04T06:13:01.729Z,98308.66
2023-01-04T06:15:29.633Z,98320.22
2023-01-04T06:17:57.649Z,98306.03
2023-01-04T06:20:27.085Z,98291.25
2023-01-04T06:22:55.253Z,98298.09
2023-01-04T06:25:23.220Z,98312.28
2023-01-04T06:27:51.222Z,98338.03
2023-01-04T06:30:19.224Z,98345.59
2023-01-04T06:32:47.609Z,98366.00
2023-01-04T06:35:15.675Z,98347.03
2023-01-04T06:37:45.129Z,98363.22
2023-01-04T06:40:13.241Z,98354.03
2023-01-04T06:42:47.525Z,98382.19
2023-01-04T06:45:16.928Z,98368.81
2023-01-04T06:47:45.027Z,98373.81
2023-01-04T06:50:13.129Z,98371.03
2023-01-04T06:52:41.156Z,98386.00
2023-01-04T06:55:11.026Z,98378.00
2023-01-04T06:57:39.333Z,98381.00
2023-01-04T07:00:09.859Z,98379.00
2023-01-04T07:02:38.092Z,98396.59
2023-01-04T07:05:06.634Z,98394.19
2023-01-04T07:07:35.677Z,98392.81
2023-01-04T07:10:09.099Z,98400.59
2023-01-04T07:12:39.542Z,98404.38
2023-01-04T07:15:39.016Z,98401.59
2023-01-04T07:17:56.077Z,98412.38
2023-01-04T07:20:24.176Z,98418.38
2023-01-04T07:22:52.204Z,98417.56
2023-01-04T07:25:20.246Z,98419.78
2023-01-04T07:27:56.425Z,98437.38
2023-01-04T07:30:24.921Z,98461.56
2023-01-04T07:32:53.429Z,98445.38
2023-01-04T07:35:21.846Z,98474.97
2023-01-04T07:37:55.612Z,98463.34
2023-01-04T07:40:26.296Z,98483.75
2023-01-04T07:42:59.942Z,98466.94
2023-01-04T07:45:27.995Z,98469.94
2023-01-04T07:47:56.010Z,98469.91
2023-01-04T07:50:24.165Z,98462.97
2023-01-04T07:52:52.299Z,98477.88
2023-01-04T07:55:20.395Z,98470.13
2023-01-04T07:57:48.502Z,98489.69
2023-01-04T08:00:18.364Z,98478.91
2023-01-04T08:02:46.441Z,98481.13
2023-01-04T08:05:14.684Z,98490.31
2023-01-04T08:07:42.805Z,98493.13
2023-01-04T08:10:10.929Z,98488.91
2023-01-04T08:12:39.005Z,98497.69
2023-01-04T08:15:07.637Z,98498.09
2023-01-04T08:17:37.079Z,98508.72
2023-01-04T08:20:08.021Z,98505.72
2023-01-04T08:22:36.108Z,98507.13
2023-01-04T08:25:06.192Z,98522.69
2023-01-04T08:27:34.435Z,98523.69
2023-01-04T08:30:02.353Z,98518.84
2023-01-04T08:32:31.426Z,98509.25
2023-01-04T08:35:00.809Z,98508.63
2023-01-04T08:37:30.208Z,98516.03
2023-01-04T08:39:58.242Z,98510.47
2023-01-04T08:42:31.195Z,98515.66
2023-01-04T08:45:01.795Z,98523.22
2023-01-04T08:47:32.391Z,98518.00
2023-01-04T08:50:08.169Z,98516.22
2023-01-04T08:52:38.812Z,98523.63
2023-01-04T08:55:12.582Z,98522.06
2023-01-04T08:57:42.265Z,98515.88
2023-01-04T09:00:10.685Z,98512.25
2023-01-04T09:02:38.779Z,98519.47
2023-01-04T09:05:09.042Z,98535.47
2023-01-04T09:07:41.131Z,98531.88
2023-01-04T09:10:09.834Z,98519.44
2023-01-04T09:12:38.059Z,98519.63
2023-01-04T09:15:06.649Z,98506.84
2023-01-04T09:17:34.600Z,98518.88
2023-01-04T09:20:02.638Z,98512.72
2023-01-04T09:22:34.026Z,98523.69
2023-01-04T09:25:02.076Z,98514.09
2023-01-04T09:27:32.758Z,98530.50
2023-01-04T09:30:00.777Z,98525.69
2023-01-04T09:32:31.690Z,98524.88
2023-01-04T09:34:59.709Z,98517.50
2023-01-04T09:37:27.722Z,98530.69
2023-01-04T09:39:57.264Z,98523.31
2023-01-04T09:42:35.050Z,98525.28
2023-01-04T09:45:23.901Z,98522.50
2023-01-04T09:47:55.543Z,98521.72
2023-01-04T09:50:25.760Z,98526.06
2023-01-04T09:52:59.297Z,98500.28
2023-01-04T09:55:38.738Z,98520.91
2023-01-04T09:58:29.699Z,98522.50
2023-01-04T10:01:01.831Z,98519.91
2023-01-04T10:03:31.225Z,98522.13
2023-01-04T10:05:59.738Z,98526.31
2023-01-04T10:08:31.652Z,98518.91
2023-01-04T10:11:08.960Z,98520.53
2023-01-04T10:13:50.037Z,98513.13
2023-01-04T10:16:44.085Z,98516.94
2023-01-04T10:20:59.919Z,98507.75
2023-01-04T10:22:11.441Z,98499.75
2023-01-04T10:24:47.399Z,98513.13
2023-01-04T10:27:20.402Z,98514.56
2023-01-04T10:30:04.255Z,98495.94
2023-01-04T10:32:37.181Z,98506.56
2023-01-04T10:35:17.116Z,98508.16
2023-01-04T10:37:46.568Z,98504.94
2023-01-04T10:40:16.346Z,98504.94
2023-01-04T10:42:52.164Z,98510.53
2023-01-04T10:45:22.411Z,98512.56
2023-01-04T10:47:57.709Z,98514.97
2023-01-04T10:50:29.022Z,98505.34
2023-01-04T10:53:01.596Z,98501.13
2023-01-04T10:55:33.213Z,98500.56
2023-01-04T10:58:05.959Z,98492.56
2023-01-04T11:00:36.396Z,98502.16
2023-01-04T11:03:09.655Z,98484.75
2023-01-04T11:05:40.774Z,98496.94
2023-01-04T11:08:11.953Z,98490.34
2023-01-04T11:10:42.418Z,98499.34
2023-01-04T11:13:11.875Z,98506.94
2023-01-04T11:15:42.852Z,98501.75
2023-01-04T11:18:11.777Z,98497.53
2023-01-04T11:20:39.790Z,98496.13
2023-01-04T11:23:10.809Z,98520.53
2023-01-04T11:25:41.409Z,98531.13
2023-01-04T11:28:16.049Z,98515.91
2023-01-04T11:30:51.268Z,98533.75
2023-01-04T11:33:20.454Z,98534.53
2023-01-04T11:35:49.649Z,98535.50
2023-01-04T11:38:18.764Z,98528.53
2023-01-04T11:40:57.324Z,98528.72
2023-01-04T11:43:26.094Z,98529.28
2023-01-04T11:45:56.560Z,98528.84
2023-01-04T11:48:35.927Z,98525.00
2023-01-04T11:51:04.211Z,98517.25
2023-01-04T11:53:33.549Z,98540.41
2023-01-04T11:56:13.496Z,98533.47
2023-01-04T11:58:42.049Z,98523.06
2023-01-04T12:01:20.610Z,98546.84
2023-01-04T12:03:48.893Z,98540.88
2023-01-04T12:06:18.922Z,98539.25
2023-01-04T12:08:47.283Z,98546.81
2023-01-04T12:11:20.370Z,98527.03
2023-01-04T12:13:48.395Z,98532.00
2023-01-04T12:16:24.868Z,98527.28
2023-01-04T12:18:52.810Z,98526.44
2023-01-04T12:21:22.274Z,98539.25
2023-01-04T12:23:50.624Z,98524.66
2023-01-04T12:26:19.203Z,98519.88
2023-01-04T12:28:48.453Z,98519.66
2023-01-04T12:31:34.387Z,98518.03
2023-01-04T12:34:28.167Z,98518.06
2023-01-04T12:37:04.545Z,98520.50
2023-01-04T12:39:42.902Z,98521.50
2023-01-04T12:42:19.660Z,98513.50
2023-01-04T12:45:11.328Z,98526.69
2023-01-04T12:48:01.581Z,98525.25
2023-01-04T12:50:32.208Z,98548.84
2023-01-04T12:53:19.909Z,98530.38
2023-01-04T12:55:53.908Z,98526.22
2023-01-04T12:59:15.480Z,98542.34
2023-01-04T13:01:29.782Z,98515.84
2023-01-04T13:04:05.185Z,98521.03
2023-01-04T13:06:37.906Z,98528.00
2023-01-04T13:09:10.630Z,98533.19
2023-01-04T13:11:40.672Z,98530.81
2023-01-04T13:14:29.706Z,98563.88
2023-01-04T13:17:05.596Z,98533.78
2023-01-04T13:19:35.370Z,98548.28
2023-01-04T13:22:03.456Z,98540.47
2023-01-04T13:24:32.472Z,98538.50
2023-01-04T13:27:07.236Z,98528.31
2023-01-04T13:29:36.411Z,98524.97
2023-01-04T13:32:05.409Z,98550.16
2023-01-04T13:34:35.749Z,98518.41
2023-01-04T13:37:08.562Z,98528.78
2023-01-04T13:39:37.072Z,98508.59
2023-01-04T13:42:06.161Z,98515.44
2023-01-04T13:47:37.844Z,98531.78
2023-01-04T13:50:18.984Z,98525.97
2023-01-04T13:52:59.843Z,98535.09
2023-01-04T13:55:32.939Z,98510.50
2023-01-04T13:58:02.007Z,98530.34
2023-01-04T14:00:34.664Z,98519.13
2023-01-04T14:03:10.180Z,98516.22
2023-01-04T14:05:45.590Z,98518.00
2023-01-04T14:08:13.953Z,98526.78
2023-01-04T14:10:44.518Z,98516.44
2023-01-04T14:13:16.547Z,98508.47
2023-01-04T14:15:44.874Z,98512.22
2023-01-04T14:18:26.508Z,98502.88
2023-01-04T14:20:56.053Z,98501.72
2023-01-04T14:23:28.721Z,98494.91
2023-01-04T14:25:59.837Z,98504.94
2023-01-04T14:28:29.182Z,98504.09
2023-01-04T14:30:58.239Z,98492.13
2023-01-04T14:33:29.421Z,98476.13
2023-01-04T14:36:11.447Z,98481.75
2023-01-04T14:38:59.128Z,98467.56
2023-01-04T14:41:30.110Z,98468.75
2023-01-04T14:44:07.111Z,98465.75
2023-01-04T14:46:35.210Z,98468.34
2023-01-04T14:49:03.460Z,98461.38
2023-01-04T14:51:34.858Z,98458.75
2023-01-04T14:54:03.083Z,98451.75
2023-01-04T14:56:31.098Z,98450.56
2023-01-04T14:58:59.319Z,98456.78
2023-01-04T15:01:27.765Z,98446.16
2023-01-04T15:03:56.088Z,98445.38
2023-01-04T15:06:24.284Z,98449.56
2023-01-04T15:08:53.816Z,98449.38
2023-01-04T15:11:25.007Z,98457.16
2023-01-04T15:13:53.221Z,98435.59
2023-01-04T15:16:21.533Z,98436.97
2023-01-04T15:18:49.758Z,98437.75
2023-01-04T15:21:18.287Z,98428.75
2023-01-04T15:23:46.410Z,98426.56
2023-01-04T15:26:16.085Z,98417.94
2023-01-04T15:28:44.094Z,98418.94
2023-01-04T15:31:13.928Z,98415.34
2023-01-04T15:33:42.101Z,98413.31
2023-01-04T15:36:17.376Z,98408.09
2023-01-04T15:38:48.748Z,98404.91
2023-01-04T15:41:33.144Z,98401.31
2023-01-04T15:44:01.338Z,98397.72
2023-01-04T15:46:29.574Z,98396.13
2023-01-04T15:48:57.826Z,98389.13
2023-01-04T15:51:25.903Z,98383.50
2023-01-04T15:53:55.381Z,98387.47
2023-01-04T15:56:24.843Z,98373.25
2023-01-04T15:58:53.692Z,98376.69
2023-01-04T16:01:22.213Z,98368.91
2023-01-04T16:03:53.919Z,98358.69
2023-01-04T16:09:05.756Z,98361.75
2023-01-04T16:11:35.132Z,98356.38
2023-01-04T16:14:03.490Z,98345.72
2023-01-04T16:16:33.104Z,98353.69
2023-01-04T16:19:02.143Z,98350.31
2023-01-04T16:21:31.658Z,98338.94
2023-01-04T16:24:07.240Z,98340.31
2023-01-04T16:26:46.555Z,98338.72
2023-01-04T16:29:14.689Z,98329.69
2023-01-04T16:31:45.535Z,98318.09
2023-01-04T16:34:14.110Z,98311.84
2023-01-04T16:36:42.254Z,98301.19
2023-01-04T16:39:10.312Z,98294.59
2023-01-04T16:41:38.276Z,98289.13
2023-01-04T16:44:07.748Z,98290.72
2023-01-04T16:46:36.553Z,98287.75
2023-01-04T16:49:05.428Z,98293.38
2023-01-04T16:51:34.727Z,98275.16
2023-01-04T16:54:03.012Z,98289.97
2023-01-04T16:56:31.045Z,98281.16
2023-01-04T16:58:59.106Z,98273.16
2023-01-04T17:01:29.548Z,98270.34
2023-01-04T17:03:58.519Z,98266.72
2023-01-04T17:06:27.042Z,98267.09
2023-01-04T17:09:14.795Z,98253.66
2023-01-04T17:15:41.334Z,98257.44
2023-01-04T17:18:24.602Z,98234.63
2023-01-04T17:21:42.566Z,98238.63
2023-01-04T17:24:19.300Z,98233.66
2023-01-04T17:26:56.227Z,98225.00
2023-01-04T17:29:24.251Z,98219.19
2023-01-04T17:31:52.316Z,98220.97
2023-01-04T17:34:23.195Z,98226.13
2023-01-04T17:36:51.920Z,98214.97
2023-01-04T17:39:21.088Z,98210.91
2023-01-04T17:41:49.037Z,98198.84
2023-01-04T17:44:17.014Z,98198.84
2023-01-04T17:46:45.061Z,98201.31
2023-01-04T17:49:32.209Z,98191.06
2023-01-04T17:52:02.172Z,98175.97
2023-01-04T17:54:30.275Z,98182.19
2023-01-04T17:56:58.601Z,98182.19
2023-01-04T17:59:26.729Z,98175.31
2023-01-04T18:01:54.745Z,98169.91
2023-01-04T18:04:22.852Z,98167.97
2023-01-04T18:06:50.816Z,98172.50
2023-01-04T18:09:24.182Z,98164.91
2023-01-04T18:11:52.596Z,98165.34
2023-01-04T18:14:20.728Z,98173.00
2023-01-04T18:16:58.484Z,98162.94
2023-01-04T18:19:28.772Z,98154.47
2023-01-04T18:21:57.047Z,98160.81
2023-01-04T18:24:42.569Z,98160.19
2023-01-04T18:27:27.480Z,98159.25
2023-01-04T18:29:56.557Z,98155.06
2023-01-04T18:32:25.343Z,98157.78
2023-01-04T18:34:53.270Z,98156.94
2023-01-04T18:37:21.724Z,98150.00
2023-01-04T18:39:51.350Z,98149.41
2023-01-04T18:42:19.380Z,98144.53
2023-01-04T18:44:49.331Z,98138.84
2023-01-04T18:47:18.556Z,98139.00
2023-01-04T18:49:46.727Z,98137.38
2023-01-04T18:52:14.915Z,98138.50
2023-01-04T18:54:43.200Z,98141.91
2023-01-04T18:57:12.682Z,98136.97
2023-01-04T18:59:40.813Z,98140.09
2023-01-04T19:02:09.112Z,98138.94
2023-01-04T19:04:40.300Z,98142.13
2023-01-04T19:07:08.453Z,98122.38
2023-01-04T19:09:36.629Z,98111.03
2023-01-04T19:12:05.086Z,98116.84
2023-01-04T19:14:34.660Z,98101.34
2023-01-04T19:17:03.958Z,98108.53
2023-01-04T19:19:32.192Z,98111.84
2023-01-04T19:22:00.220Z,98115.19
2023-01-04T19:24:28.288Z,98103.00
2023-01-04T19:27:02.893Z,98116.63
2023-01-04T19:29:31.414Z,98105.34
2023-01-04T19:32:00.901Z,98099.75
2023-01-04T19:34:28.918Z,98102.75
2023-01-04T19:36:57.005Z,98099.09
2023-01-04T19:39:25.014Z,98089.69
2023-01-04T19:41:53.143Z,98085.63
2023-01-04T19:44:21.135Z,98077.38
2023-01-04T19:46:49.323Z,98061.09
2023-01-04T19:49:18.733Z,98106.41
2023-01-04T19:51:47.422Z,98081.34
2023-01-04T19:54:18.702Z,98078.31
2023-01-04T19:56:52.658Z,98093.81
2023-01-04T19:59:20.681Z,98082.16
2023-01-04T20:01:49.031Z,98068.91
2023-01-04T20:04:28.213Z,98060.59
2023-01-04T20:06:56.160Z,98064.28
2023-01-04T20:09:27.726Z,98079.69
2023-01-04T20:11:56.110Z,98066.19
2023-01-04T20:14:24.193Z,98062.50
2023-01-04T20:16:52.259Z,98059.38
2023-01-04T20:19:20.439Z,98053.19
2023-01-04T20:21:50.177Z,98054.53
2023-01-04T20:24:18.219Z,98059.81
2023-01-04T20:26:46.809Z,98062.50
2023-01-04T20:29:14.888Z,98063.09
2023-01-04T20:31:45.754Z,98048.66
2023-01-04T20:34:14.376Z,98065.44
2023-01-04T20:36:42.450Z,98064.88
2023-01-04T20:39:12.375Z,98055.22
2023-01-04T20:42:00.421Z,98064.88
2023-01-04T20:44:27.472Z,98042.38
2023-01-04T20:46:55.417Z,98056.38
2023-01-04T20:49:23.902Z,98035.56
2023-01-04T20:51:51.962Z,98035.06
2023-01-04T20:54:21.310Z,98041.00
2023-01-04T20:56:51.768Z,98044.69
2023-01-04T20:59:19.740Z,98040.13
2023-01-04T21:01:47.845Z,98038.72
2023-01-04T21:04:17.763Z,98047.06
2023-01-04T21:06:45.709Z,98036.75
2023-01-04T21:09:13.726Z,98046.56
2023-01-04T21:11:43.164Z,98025.81
2023-01-04T21:14:12.208Z,98045.63
2023-01-04T21:16:42.347Z,98026.31
2023-01-04T21:19:10.499Z,98027.84
2023-01-04T21:21:38.533Z,98022.28
2023-01-04T21:24:06.755Z,98040.84
2023-01-04T21:26:34.705Z,98019.41
2023-01-04T21:29:04.172Z,98015.41
2023-01-04T21:31:32.189Z,98043.63
2023-01-04T21:34:00.326Z,98014.34
2023-01-04T21:36:29.055Z,98015.13
2023-01-04T21:38:57.732Z,98022.00
2023-01-04T21:41:26.537Z,98021.50
2023-01-04T21:43:55.308Z,98008.41
2023-01-04T21:46:25.167Z,98020.00
2023-01-04T21:48:54.891Z,98025.69
2023-01-04T21:51:22.931Z,98000.59
2023-01-04T21:53:50.994Z,98004.44
2023-01-04T21:56:20.073Z,98020.72
2023-01-04T21:58:48.179Z,98010.59
2023-01-04T22:01:17.532Z,98002.13
2023-01-04T22:03:47.185Z,98019.63
2023-01-04T22:06:15.529Z,98015.00
2023-01-04T22:08:44.103Z,97998.00
2023-01-04T22:11:12.104Z,98011.31
2023-01-04T22:13:40.146Z,97996.97
2023-01-04T22:16:08.585Z,97967.22
2023-01-04T22:18:36.814Z,98015.06
2023-01-04T22:21:07.208Z,97994.53
2023-01-04T22:23:35.268Z,97996.78
2023-01-04T22:26:03.507Z,97988.25
2023-01-04T22:28:36.538Z,97985.84
2023-01-04T22:31:06.061Z,97981.81
2023-01-04T22:33:34.803Z,98016.16
2023-01-04T22:36:05.053Z,97979.84
2023-01-04T22:38:36.682Z,97972.06
2023-01-04T22:41:08.594Z,97974.00
2023-01-04T22:43:36.985Z,97980.44
2023-01-04T22:46:06.456Z,97968.44
2023-01-04T22:48:35.415Z,97972.63
2023-01-04T22:51:06.280Z,97967.38
2023-01-04T22:53:35.811Z,97965.91
2023-01-04T22:56:22.696Z,97966.84
2023-01-04T22:58:53.788Z,97964.03
2023-01-04T23:01:22.850Z,97954.47
2023-01-04T23:03:52.090Z,97953.91
2023-01-04T23:06:20.601Z,97943.22
2023-01-04T23:08:55.080Z,97956.50
2023-01-04T23:11:23.186Z,97960.56
2023-01-04T23:13:51.235Z,97947.09
2023-01-04T23:16:19.288Z,97936.41
2023-01-04T23:18:49.567Z,97960.78
2023-01-04T23:21:18.033Z,97969.38
2023-01-04T23:23:49.783Z,97963.56
2023-01-04T23:26:20.559Z,97911.41
2023-01-04T23:28:49.220Z,97945.22
2023-01-04T23:31:18.506Z,97953.84
2023-01-04T23:33:46.635Z,97958.25
2023-01-04T23:36:15.836Z,97968.50
2023-01-04T23:38:44.452Z,97963.94
2023-01-04T23:41:12.963Z,97952.69
2023-01-04T23:43:42.463Z,97959.84
2023-01-04T23:46:12.426Z,97953.34
2023-01-04T23:48:40.700Z,97947.69
2023-01-04T23:51:09.030Z,97977.44
2023-01-04T23:53:37.012Z,97950.75
2023-01-04T23:56:06.460Z,97936.09
2023-01-04T23:58:34.900Z,97970.59
